sensor_id;sensor_type;location;lat;lon;timestamp;P1;durP1;ratioP1;P2;durP2;ratioP2
40649;SDS011;26342;42.826;23.992;2024-02-21T00:01:23;2.95;;;1.20;;
40649;SDS011;26342;42.826;23.992;2024-02-21T00:03:49;1.80;;;1.20;;
40649;SDS011;26342;42.826;23.992;2024-02-21T00:06:14;3.05;;;1.90;;
40649;SDS011;26342;42.826;23.992;2024-02-21T00:08:39;7.10;;;2.13;;
40649;SDS011;26342;42.826;23.992;2024-02-21T00:11:05;3.47;;;2.45;;
40649;SDS011;26342;42.826;23.992;2024-02-21T00:13:30;2.47;;;1.58;;
40649;SDS011;26342;42.826;23.992;2024-02-21T00:15:56;4.60;;;2.05;;
40649;SDS011;26342;42.826;23.992;2024-02-21T00:18:21;1.88;;;1.10;;
40649;SDS011;26342;42.826;23.992;2024-02-21T00:20:47;0.80;;;0.80;;
40649;SDS011;26342;42.826;23.992;2024-02-21T00:23:12;1.15;;;0.88;;
40649;SDS011;26342;42.826;23.992;2024-02-21T00:25:38;2.75;;;1.70;;
40649;SDS011;26342;42.826;23.992;2024-02-21T00:28:03;0.93;;;0.63;;
40649;SDS011;26342;42.826;23.992;2024-02-21T00:30:30;2.22;;;1.42;;
40649;SDS011;26342;42.826;23.992;2024-02-21T00:32:56;2.97;;;1.77;;
40649;SDS011;26342;42.826;23.992;2024-02-21T00:35:21;1.00;;;0.88;;
40649;SDS011;26342;42.826;23.992;2024-02-21T00:37:47;2.53;;;1.15;;
40649;SDS011;26342;42.826;23.992;2024-02-21T00:40:12;2.97;;;1.27;;
40649;SDS011;26342;42.826;23.992;2024-02-21T00:42:38;2.67;;;1.75;;
40649;SDS011;26342;42.826;23.992;2024-02-21T00:45:03;1.92;;;1.02;;
40649;SDS011;26342;42.826;23.992;2024-02-21T00:47:29;2.67;;;1.05;;
40649;SDS011;26342;42.826;23.992;2024-02-21T00:49:55;2.03;;;1.50;;
40649;SDS011;26342;42.826;23.992;2024-02-21T00:52:20;0.77;;;0.50;;
40649;SDS011;26342;42.826;23.992;2024-02-21T00:54:45;3.28;;;0.88;;
40649;SDS011;26342;42.826;23.992;2024-02-21T00:57:11;3.65;;;1.25;;
40649;SDS011;26342;42.826;23.992;2024-02-21T00:59:37;2.63;;;1.23;;
40649;SDS011;26342;42.826;23.992;2024-02-21T01:02:02;3.60;;;1.85;;
40649;SDS011;26342;42.826;23.992;2024-02-21T01:04:28;4.45;;;2.28;;
40649;SDS011;26342;42.826;23.992;2024-02-21T01:06:53;2.95;;;1.13;;
40649;SDS011;26342;42.826;23.992;2024-02-21T01:09:19;0.70;;;0.50;;
40649;SDS011;26342;42.826;23.992;2024-02-21T01:11:44;1.27;;;0.90;;
40649;SDS011;26342;42.826;23.992;2024-02-21T01:14:09;1.70;;;1.23;;
40649;SDS011;26342;42.826;23.992;2024-02-21T01:16:36;2.45;;;1.35;;
40649;SDS011;26342;42.826;23.992;2024-02-21T01:19:01;7.88;;;1.42;;
40649;SDS011;26342;42.826;23.992;2024-02-21T01:21:27;1.60;;;0.85;;
40649;SDS011;26342;42.826;23.992;2024-02-21T01:23:52;0.43;;;0.43;;
40649;SDS011;26342;42.826;23.992;2024-02-21T01:26:17;1.23;;;0.82;;
40649;SDS011;26342;42.826;23.992;2024-02-21T01:28:43;1.00;;;0.47;;
40649;SDS011;26342;42.826;23.992;2024-02-21T01:31:08;5.22;;;2.30;;
40649;SDS011;26342;42.826;23.992;2024-02-21T01:33:34;5.82;;;2.45;;
40649;SDS011;26342;42.826;23.992;2024-02-21T01:36:04;2.28;;;1.52;;
40649;SDS011;26342;42.826;23.992;2024-02-21T01:38:31;1.98;;;1.65;;
40649;SDS011;26342;42.826;23.992;2024-02-21T01:40:57;4.40;;;2.47;;
40649;SDS011;26342;42.826;23.992;2024-02-21T01:43:23;2.65;;;1.33;;
40649;SDS011;26342;42.826;23.992;2024-02-21T01:45:49;1.83;;;1.15;;
40649;SDS011;26342;42.826;23.992;2024-02-21T01:48:18;2.50;;;0.98;;
40649;SDS011;26342;42.826;23.992;2024-02-21T01:50:44;1.70;;;1.20;;
40649;SDS011;26342;42.826;23.992;2024-02-21T01:53:11;5.80;;;1.42;;
40649;SDS011;26342;42.826;23.992;2024-02-21T01:55:44;3.07;;;1.13;;
40649;SDS011;26342;42.826;23.992;2024-02-21T01:58:11;5.70;;;1.58;;
40649;SDS011;26342;42.826;23.992;2024-02-21T02:00:38;3.13;;;1.40;;
40649;SDS011;26342;42.826;23.992;2024-02-21T02:03:07;2.28;;;1.40;;
40649;SDS011;26342;42.826;23.992;2024-02-21T02:05:35;3.03;;;1.48;;
40649;SDS011;26342;42.826;23.992;2024-02-21T02:08:01;2.80;;;1.33;;
40649;SDS011;26342;42.826;23.992;2024-02-21T02:10:26;0.70;;;0.70;;
40649;SDS011;26342;42.826;23.992;2024-02-21T02:12:52;0.77;;;0.63;;
40649;SDS011;26342;42.826;23.992;2024-02-21T02:15:17;0.68;;;0.68;;
40649;SDS011;26342;42.826;23.992;2024-02-21T02:17:43;2.92;;;0.73;;
40649;SDS011;26342;42.826;23.992;2024-02-21T02:20:08;1.65;;;1.10;;
40649;SDS011;26342;42.826;23.992;2024-02-21T02:22:34;2.50;;;1.83;;
40649;SDS011;26342;42.826;23.992;2024-02-21T02:25:02;3.30;;;2.00;;
40649;SDS011;26342;42.826;23.992;2024-02-21T02:27:28;3.67;;;1.95;;
40649;SDS011;26342;42.826;23.992;2024-02-21T02:29:54;2.92;;;1.73;;
40649;SDS011;26342;42.826;23.992;2024-02-21T02:32:19;6.90;;;1.17;;
40649;SDS011;26342;42.826;23.992;2024-02-21T02:34:45;1.10;;;1.00;;
40649;SDS011;26342;42.826;23.992;2024-02-21T02:37:10;2.97;;;1.55;;
40649;SDS011;26342;42.826;23.992;2024-02-21T02:39:35;4.82;;;1.90;;
40649;SDS011;26342;42.826;23.992;2024-02-21T02:42:01;2.10;;;1.55;;
40649;SDS011;26342;42.826;23.992;2024-02-21T02:44:27;4.68;;;1.55;;
40649;SDS011;26342;42.826;23.992;2024-02-21T02:46:52;6.35;;;1.52;;
40649;SDS011;26342;42.826;23.992;2024-02-21T02:49:18;3.15;;;1.48;;
40649;SDS011;26342;42.826;23.992;2024-02-21T02:51:43;3.38;;;1.48;;
40649;SDS011;26342;42.826;23.992;2024-02-21T02:54:09;3.72;;;1.20;;
40649;SDS011;26342;42.826;23.992;2024-02-21T02:56:35;1.38;;;0.90;;
40649;SDS011;26342;42.826;23.992;2024-02-21T02:59:00;1.50;;;1.13;;
40649;SDS011;26342;42.826;23.992;2024-02-21T03:01:26;3.60;;;1.48;;
40649;SDS011;26342;42.826;23.992;2024-02-21T03:03:52;2.85;;;1.27;;
40649;SDS011;26342;42.826;23.992;2024-02-21T03:06:18;1.55;;;0.80;;
40649;SDS011;26342;42.826;23.992;2024-02-21T03:08:43;3.20;;;1.42;;
40649;SDS011;26342;42.826;23.992;2024-02-21T03:11:08;2.88;;;1.05;;
40649;SDS011;26342;42.826;23.992;2024-02-21T03:13:35;1.17;;;0.98;;
40649;SDS011;26342;42.826;23.992;2024-02-21T03:16:01;1.17;;;0.60;;
40649;SDS011;26342;42.826;23.992;2024-02-21T03:18:27;4.70;;;3.28;;
40649;SDS011;26342;42.826;23.992;2024-02-21T03:20:52;11.07;;;4.00;;
40649;SDS011;26342;42.826;23.992;2024-02-21T03:23:18;6.32;;;2.38;;
40649;SDS011;26342;42.826;23.992;2024-02-21T03:25:43;6.18;;;2.25;;
40649;SDS011;26342;42.826;23.992;2024-02-21T03:28:08;2.50;;;2.08;;
40649;SDS011;26342;42.826;23.992;2024-02-21T03:30:34;4.63;;;2.05;;
40649;SDS011;26342;42.826;23.992;2024-02-21T03:32:59;2.42;;;1.35;;
40649;SDS011;26342;42.826;23.992;2024-02-21T03:35:26;2.17;;;1.17;;
40649;SDS011;26342;42.826;23.992;2024-02-21T03:37:52;1.05;;;0.90;;
40649;SDS011;26342;42.826;23.992;2024-02-21T03:40:17;1.85;;;1.10;;
40649;SDS011;26342;42.826;23.992;2024-02-21T03:42:43;1.58;;;1.23;;
40649;SDS011;26342;42.826;23.992;2024-02-21T03:45:09;1.92;;;1.17;;
40649;SDS011;26342;42.826;23.992;2024-02-21T03:47:34;1.58;;;0.95;;
40649;SDS011;26342;42.826;23.992;2024-02-21T03:50:00;2.30;;;1.17;;
40649;SDS011;26342;42.826;23.992;2024-02-21T03:52:25;2.97;;;1.05;;
40649;SDS011;26342;42.826;23.992;2024-02-21T03:54:50;1.85;;;0.75;;
40649;SDS011;26342;42.826;23.992;2024-02-21T03:57:16;6.43;;;2.08;;
40649;SDS011;26342;42.826;23.992;2024-02-21T03:59:42;1.88;;;1.42;;
40649;SDS011;26342;42.826;23.992;2024-02-21T04:02:08;5.10;;;1.92;;
40649;SDS011;26342;42.826;23.992;2024-02-21T04:04:36;3.30;;;1.70;;
40649;SDS011;26342;42.826;23.992;2024-02-21T04:07:02;6.13;;;2.20;;
40649;SDS011;26342;42.826;23.992;2024-02-21T04:09:31;3.05;;;2.20;;
40649;SDS011;26342;42.826;23.992;2024-02-21T04:11:58;5.07;;;2.38;;
40649;SDS011;26342;42.826;23.992;2024-02-21T04:14:23;6.93;;;3.22;;
40649;SDS011;26342;42.826;23.992;2024-02-21T04:16:49;6.53;;;2.15;;
40649;SDS011;26342;42.826;23.992;2024-02-21T04:19:14;4.18;;;2.15;;
40649;SDS011;26342;42.826;23.992;2024-02-21T04:21:40;7.95;;;2.80;;
40649;SDS011;26342;42.826;23.992;2024-02-21T04:24:05;4.70;;;2.13;;
40649;SDS011;26342;42.826;23.992;2024-02-21T04:26:31;5.68;;;1.85;;
40649;SDS011;26342;42.826;23.992;2024-02-21T04:28:56;3.67;;;2.53;;
40649;SDS011;26342;42.826;23.992;2024-02-21T04:31:22;3.67;;;2.65;;
40649;SDS011;26342;42.826;23.992;2024-02-21T04:33:48;1.83;;;1.40;;
40649;SDS011;26342;42.826;23.992;2024-02-21T04:36:13;3.58;;;1.65;;
40649;SDS011;26342;42.826;23.992;2024-02-21T04:38:39;6.20;;;3.80;;
40649;SDS011;26342;42.826;23.992;2024-02-21T04:41:05;7.13;;;4.07;;
40649;SDS011;26342;42.826;23.992;2024-02-21T04:43:31;4.63;;;3.22;;
40649;SDS011;26342;42.826;23.992;2024-02-21T04:45:56;7.88;;;4.07;;
40649;SDS011;26342;42.826;23.992;2024-02-21T04:48:22;6.15;;;3.33;;
40649;SDS011;26342;42.826;23.992;2024-02-21T04:50:47;5.82;;;3.80;;
40649;SDS011;26342;42.826;23.992;2024-02-21T04:53:13;6.03;;;3.17;;
40649;SDS011;26342;42.826;23.992;2024-02-21T04:55:38;10.35;;;4.28;;
40649;SDS011;26342;42.826;23.992;2024-02-21T04:58:05;7.75;;;4.63;;
40649;SDS011;26342;42.826;23.992;2024-02-21T05:00:30;10.63;;;4.28;;
40649;SDS011;26342;42.826;23.992;2024-02-21T05:02:55;4.72;;;2.22;;
40649;SDS011;26342;42.826;23.992;2024-02-21T05:05:21;4.88;;;3.08;;
40649;SDS011;26342;42.826;23.992;2024-02-21T05:07:46;5.30;;;3.30;;
40649;SDS011;26342;42.826;23.992;2024-02-21T05:10:12;5.75;;;2.45;;
40649;SDS011;26342;42.826;23.992;2024-02-21T05:12:37;4.07;;;2.08;;
40649;SDS011;26342;42.826;23.992;2024-02-21T05:15:03;1.98;;;1.67;;
40649;SDS011;26342;42.826;23.992;2024-02-21T05:17:29;1.80;;;1.40;;
40649;SDS011;26342;42.826;23.992;2024-02-21T05:19:54;5.13;;;2.75;;
40649;SDS011;26342;42.826;23.992;2024-02-21T05:22:20;6.38;;;2.78;;
40649;SDS011;26342;42.826;23.992;2024-02-21T05:24:45;4.82;;;2.38;;
40649;SDS011;26342;42.826;23.992;2024-02-21T05:27:10;3.35;;;2.55;;
40649;SDS011;26342;42.826;23.992;2024-02-21T05:29:36;4.25;;;2.78;;
40649;SDS011;26342;42.826;23.992;2024-02-21T05:32:01;3.30;;;2.05;;
40649;SDS011;26342;42.826;23.992;2024-02-21T05:34:27;4.28;;;2.15;;
40649;SDS011;26342;42.826;23.992;2024-02-21T05:36:53;1.88;;;1.13;;
40649;SDS011;26342;42.826;23.992;2024-02-21T05:39:18;2.53;;;1.52;;
40649;SDS011;26342;42.826;23.992;2024-02-21T05:41:45;4.15;;;2.25;;
40649;SDS011;26342;42.826;23.992;2024-02-21T05:44:10;4.47;;;2.63;;
40649;SDS011;26342;42.826;23.992;2024-02-21T05:46:36;9.48;;;2.65;;
40649;SDS011;26342;42.826;23.992;2024-02-21T05:49:01;7.82;;;4.40;;
40649;SDS011;26342;42.826;23.992;2024-02-21T05:51:27;5.45;;;3.45;;
40649;SDS011;26342;42.826;23.992;2024-02-21T05:53:52;12.15;;;2.95;;
40649;SDS011;26342;42.826;23.992;2024-02-21T05:56:17;2.15;;;1.55;;
40649;SDS011;26342;42.826;23.992;2024-02-21T05:58:44;4.30;;;2.00;;
40649;SDS011;26342;42.826;23.992;2024-02-21T06:01:10;3.88;;;1.23;;
40649;SDS011;26342;42.826;23.992;2024-02-21T06:03:36;5.55;;;2.78;;
40649;SDS011;26342;42.826;23.992;2024-02-21T06:06:01;5.57;;;2.25;;
40649;SDS011;26342;42.826;23.992;2024-02-21T06:08:27;3.90;;;2.13;;
40649;SDS011;26342;42.826;23.992;2024-02-21T06:10:53;18.70;;;6.03;;
40649;SDS011;26342;42.826;23.992;2024-02-21T06:13:28;12.32;;;6.80;;
40649;SDS011;26342;42.826;23.992;2024-02-21T06:15:54;5.90;;;3.80;;
40649;SDS011;26342;42.826;23.992;2024-02-21T06:18:19;3.17;;;1.85;;
40649;SDS011;26342;42.826;23.992;2024-02-21T06:20:46;4.88;;;1.88;;
40649;SDS011;26342;42.826;23.992;2024-02-21T06:23:12;5.60;;;2.63;;
40649;SDS011;26342;42.826;23.992;2024-02-21T06:25:38;5.88;;;3.25;;
40649;SDS011;26342;42.826;23.992;2024-02-21T06:28:04;15.43;;;5.78;;
40649;SDS011;26342;42.826;23.992;2024-02-21T06:30:30;12.60;;;4.53;;
40649;SDS011;26342;42.826;23.992;2024-02-21T06:32:56;6.22;;;3.78;;
40649;SDS011;26342;42.826;23.992;2024-02-21T06:35:21;5.65;;;3.60;;
40649;SDS011;26342;42.826;23.992;2024-02-21T06:37:49;6.22;;;4.35;;
40649;SDS011;26342;42.826;23.992;2024-02-21T06:40:16;6.85;;;4.30;;
40649;SDS011;26342;42.826;23.992;2024-02-21T06:42:48;8.13;;;4.80;;
40649;SDS011;26342;42.826;23.992;2024-02-21T06:45:14;4.60;;;2.83;;
40649;SDS011;26342;42.826;23.992;2024-02-21T06:47:40;3.60;;;2.22;;
40649;SDS011;26342;42.826;23.992;2024-02-21T06:50:05;4.60;;;2.80;;
40649;SDS011;26342;42.826;23.992;2024-02-21T06:52:31;2.83;;;2.33;;
40649;SDS011;26342;42.826;23.992;2024-02-21T06:54:57;3.22;;;1.83;;
40649;SDS011;26342;42.826;23.992;2024-02-21T06:57:22;3.35;;;2.20;;
40649;SDS011;26342;42.826;23.992;2024-02-21T06:59:48;3.10;;;1.75;;
40649;SDS011;26342;42.826;23.992;2024-02-21T07:02:14;4.28;;;1.98;;
40649;SDS011;26342;42.826;23.992;2024-02-21T07:04:39;1.92;;;1.67;;
40649;SDS011;26342;42.826;23.992;2024-02-21T07:07:04;1.85;;;0.82;;
40649;SDS011;26342;42.826;23.992;2024-02-21T07:09:30;3.25;;;0.80;;
40649;SDS011;26342;42.826;23.992;2024-02-21T07:11:57;3.17;;;2.00;;
40649;SDS011;26342;42.826;23.992;2024-02-21T07:14:23;4.10;;;2.03;;
40649;SDS011;26342;42.826;23.992;2024-02-21T07:16:48;3.30;;;1.60;;
40649;SDS011;26342;42.826;23.992;2024-02-21T07:19:14;4.72;;;2.40;;
40649;SDS011;26342;42.826;23.992;2024-02-21T07:21:39;4.03;;;2.35;;
40649;SDS011;26342;42.826;23.992;2024-02-21T07:24:06;1.85;;;1.45;;
40649;SDS011;26342;42.826;23.992;2024-02-21T07:26:32;8.32;;;2.90;;
40649;SDS011;26342;42.826;23.992;2024-02-21T07:28:58;5.40;;;3.10;;
40649;SDS011;26342;42.826;23.992;2024-02-21T07:31:23;4.22;;;1.85;;
40649;SDS011;26342;42.826;23.992;2024-02-21T07:33:49;2.25;;;1.77;;
40649;SDS011;26342;42.826;23.992;2024-02-21T07:36:15;8.60;;;2.97;;
40649;SDS011;26342;42.826;23.992;2024-02-21T07:38:42;5.82;;;3.45;;
40649;SDS011;26342;42.826;23.992;2024-02-21T07:41:07;4.13;;;2.25;;
40649;SDS011;26342;42.826;23.992;2024-02-21T07:43:32;5.80;;;2.53;;
40649;SDS011;26342;42.826;23.992;2024-02-21T07:45:58;4.47;;;2.42;;
40649;SDS011;26342;42.826;23.992;2024-02-21T07:48:23;4.22;;;2.72;;
40649;SDS011;26342;42.826;23.992;2024-02-21T07:50:51;5.13;;;2.80;;
40649;SDS011;26342;42.826;23.992;2024-02-21T07:53:17;3.92;;;3.05;;
40649;SDS011;26342;42.826;23.992;2024-02-21T07:55:43;9.77;;;4.22;;
40649;SDS011;26342;42.826;23.992;2024-02-21T07:58:08;8.38;;;4.53;;
40649;SDS011;26342;42.826;23.992;2024-02-21T08:00:33;7.80;;;4.63;;
40649;SDS011;26342;42.826;23.992;2024-02-21T08:02:59;7.97;;;4.78;;
40649;SDS011;26342;42.826;23.992;2024-02-21T08:05:25;8.05;;;4.53;;
40649;SDS011;26342;42.826;23.992;2024-02-21T08:07:50;12.68;;;5.43;;
40649;SDS011;26342;42.826;23.992;2024-02-21T08:10:15;9.15;;;4.00;;
40649;SDS011;26342;42.826;23.992;2024-02-21T08:12:41;11.25;;;5.93;;
40649;SDS011;26342;42.826;23.992;2024-02-21T08:15:06;6.85;;;4.15;;
40649;SDS011;26342;42.826;23.992;2024-02-21T08:17:37;7.15;;;4.32;;
40649;SDS011;26342;42.826;23.992;2024-02-21T08:20:03;11.55;;;4.82;;
40649;SDS011;26342;42.826;23.992;2024-02-21T08:22:29;4.95;;;3.08;;
40649;SDS011;26342;42.826;23.992;2024-02-21T08:24:55;11.75;;;5.70;;
40649;SDS011;26342;42.826;23.992;2024-02-21T08:27:20;12.35;;;6.68;;
40649;SDS011;26342;42.826;23.992;2024-02-21T08:29:46;8.85;;;5.75;;
40649;SDS011;26342;42.826;23.992;2024-02-21T08:32:11;11.43;;;6.95;;
40649;SDS011;26342;42.826;23.992;2024-02-21T08:34:37;11.00;;;4.88;;
40649;SDS011;26342;42.826;23.992;2024-02-21T08:37:02;10.40;;;4.75;;
40649;SDS011;26342;42.826;23.992;2024-02-21T08:39:28;8.93;;;4.97;;
40649;SDS011;26342;42.826;23.992;2024-02-21T08:41:55;14.20;;;6.53;;
40649;SDS011;26342;42.826;23.992;2024-02-21T08:44:22;12.77;;;4.85;;
40649;SDS011;26342;42.826;23.992;2024-02-21T08:46:48;11.53;;;5.77;;
40649;SDS011;26342;42.826;23.992;2024-02-21T08:49:14;12.75;;;7.00;;
40649;SDS011;26342;42.826;23.992;2024-02-21T08:51:40;8.07;;;4.47;;
40649;SDS011;26342;42.826;23.992;2024-02-21T08:54:05;6.38;;;4.10;;
40649;SDS011;26342;42.826;23.992;2024-02-21T08:56:31;7.10;;;3.70;;
40649;SDS011;26342;42.826;23.992;2024-02-21T08:58:56;7.82;;;4.03;;
40649;SDS011;26342;42.826;23.992;2024-02-21T09:01:23;8.05;;;3.63;;
40649;SDS011;26342;42.826;23.992;2024-02-21T09:03:48;8.77;;;4.18;;
40649;SDS011;26342;42.826;23.992;2024-02-21T09:06:17;6.43;;;3.47;;
40649;SDS011;26342;42.826;23.992;2024-02-21T09:08:43;4.68;;;2.83;;
40649;SDS011;26342;42.826;23.992;2024-02-21T09:11:08;4.85;;;3.17;;
40649;SDS011;26342;42.826;23.992;2024-02-21T09:13:34;2.03;;;1.63;;
40649;SDS011;26342;42.826;23.992;2024-02-21T09:15:59;1.88;;;0.90;;
40649;SDS011;26342;42.826;23.992;2024-02-21T09:18:25;2.35;;;1.10;;
40649;SDS011;26342;42.826;23.992;2024-02-21T09:20:50;6.82;;;2.35;;
40649;SDS011;26342;42.826;23.992;2024-02-21T09:23:15;3.22;;;2.13;;
40649;SDS011;26342;42.826;23.992;2024-02-21T09:25:41;3.15;;;1.70;;
40649;SDS011;26342;42.826;23.992;2024-02-21T09:28:07;4.75;;;1.52;;
40649;SDS011;26342;42.826;23.992;2024-02-21T09:30:32;1.80;;;1.10;;
40649;SDS011;26342;42.826;23.992;2024-02-21T09:32:58;1.33;;;0.68;;
40649;SDS011;26342;42.826;23.992;2024-02-21T09:35:24;0.45;;;0.45;;
40649;SDS011;26342;42.826;23.992;2024-02-21T09:37:51;0.90;;;0.88;;
40649;SDS011;26342;42.826;23.992;2024-02-21T09:40:17;0.82;;;0.50;;
40649;SDS011;26342;42.826;23.992;2024-02-21T09:42:43;0.43;;;0.43;;
40649;SDS011;26342;42.826;23.992;2024-02-21T09:45:19;0.73;;;0.60;;
40649;SDS011;26342;42.826;23.992;2024-02-21T09:50:40;4.03;;;0.75;;
40649;SDS011;26342;42.826;23.992;2024-02-21T09:53:06;0.50;;;0.50;;
40649;SDS011;26342;42.826;23.992;2024-02-21T09:55:32;1.48;;;0.85;;
40649;SDS011;26342;42.826;23.992;2024-02-21T09:57:59;0.60;;;0.60;;
40649;SDS011;26342;42.826;23.992;2024-02-21T10:18:01;0.50;;;0.50;;
40649;SDS011;26342;42.826;23.992;2024-02-21T10:20:28;0.82;;;0.82;;
40649;SDS011;26342;42.826;23.992;2024-02-21T10:23:00;1.15;;;0.22;;
40649;SDS011;26342;42.826;23.992;2024-02-21T10:25:33;6.47;;;0.45;;
40649;SDS011;26342;42.826;23.992;2024-02-21T10:27:58;0.70;;;0.40;;
40649;SDS011;26342;42.826;23.992;2024-02-21T10:30:24;0.15;;;0.15;;
40649;SDS011;26342;42.826;23.992;2024-02-21T10:35:25;0.45;;;0.30;;
40649;SDS011;26342;42.826;23.992;2024-02-21T10:37:55;1.15;;;0.40;;
40649;SDS011;26342;42.826;23.992;2024-02-21T10:40:24;0.40;;;0.20;;
40649;SDS011;26342;42.826;23.992;2024-02-21T10:42:56;0.38;;;0.38;;
40649;SDS011;26342;42.826;23.992;2024-02-21T10:45:25;0.75;;;0.52;;
40649;SDS011;26342;42.826;23.992;2024-02-21T10:47:56;0.43;;;0.23;;
40649;SDS011;26342;42.826;23.992;2024-02-21T10:50:53;1.17;;;0.93;;
40649;SDS011;26342;42.826;23.992;2024-02-21T10:56:11;0.10;;;0.08;;
40649;SDS011;26342;42.826;23.992;2024-02-21T10:59:07;0.93;;;0.28;;
40649;SDS011;26342;42.826;23.992;2024-02-21T11:01:33;4.20;;;0.98;;
40649;SDS011;26342;42.826;23.992;2024-02-21T11:04:10;1.35;;;0.68;;
40649;SDS011;26342;42.826;23.992;2024-02-21T11:06:37;1.58;;;0.80;;
40649;SDS011;26342;42.826;23.992;2024-02-21T11:09:08;0.40;;;0.40;;
40649;SDS011;26342;42.826;23.992;2024-02-21T11:14:09;2.28;;;1.33;;
40649;SDS011;26342;42.826;23.992;2024-02-21T11:16:36;8.38;;;0.93;;
40649;SDS011;26342;42.826;23.992;2024-02-21T11:19:08;1.30;;;0.43;;
40649;SDS011;26342;42.826;23.992;2024-02-21T11:21:36;2.50;;;0.95;;
40649;SDS011;26342;42.826;23.992;2024-02-21T11:24:05;3.38;;;1.40;;
40649;SDS011;26342;42.826;23.992;2024-02-21T11:26:31;0.35;;;0.30;;
40649;SDS011;26342;42.826;23.992;2024-02-21T11:28:57;2.28;;;1.00;;
40649;SDS011;26342;42.826;23.992;2024-02-21T11:31:37;2.17;;;0.80;;
40649;SDS011;26342;42.826;23.992;2024-02-21T11:34:04;1.10;;;0.40;;
40649;SDS011;26342;42.826;23.992;2024-02-21T11:36:29;1.70;;;0.60;;
40649;SDS011;26342;42.826;23.992;2024-02-21T11:38:55;2.35;;;1.13;;
40649;SDS011;26342;42.826;23.992;2024-02-21T11:41:29;0.85;;;0.55;;
40649;SDS011;26342;42.826;23.992;2024-02-21T11:43:55;2.42;;;1.00;;
40649;SDS011;26342;42.826;23.992;2024-02-21T11:46:20;0.43;;;0.43;;
40649;SDS011;26342;42.826;23.992;2024-02-21T11:48:46;1.45;;;0.57;;
40649;SDS011;26342;42.826;23.992;2024-02-21T11:51:24;0.70;;;0.63;;
40649;SDS011;26342;42.826;23.992;2024-02-21T11:53:52;2.60;;;0.50;;
40649;SDS011;26342;42.826;23.992;2024-02-21T11:56:18;0.30;;;0.28;;
40649;SDS011;26342;42.826;23.992;2024-02-21T11:58:45;1.42;;;0.75;;
40649;SDS011;26342;42.826;23.992;2024-02-21T12:01:12;0.65;;;0.63;;
40649;SDS011;26342;42.826;23.992;2024-02-21T12:03:38;0.32;;;0.32;;
40649;SDS011;26342;42.826;23.992;2024-02-21T12:06:06;0.98;;;0.60;;
40649;SDS011;26342;42.826;23.992;2024-02-21T12:08:41;1.40;;;0.63;;
40649;SDS011;26342;42.826;23.992;2024-02-21T12:11:20;1.75;;;1.17;;
40649;SDS011;26342;42.826;23.992;2024-02-21T12:13:58;0.20;;;0.20;;
40649;SDS011;26342;42.826;23.992;2024-02-21T12:16:26;2.65;;;1.08;;
40649;SDS011;26342;42.826;23.992;2024-02-21T12:18:54;2.50;;;0.77;;
40649;SDS011;26342;42.826;23.992;2024-02-21T12:21:19;2.25;;;1.40;;
40649;SDS011;26342;42.826;23.992;2024-02-21T12:23:49;1.20;;;0.73;;
40649;SDS011;26342;42.826;23.992;2024-02-21T12:26:14;3.83;;;1.67;;
40649;SDS011;26342;42.826;23.992;2024-02-21T12:28:39;0.20;;;0.20;;
40649;SDS011;26342;42.826;23.992;2024-02-21T12:31:05;0.93;;;0.77;;
40649;SDS011;26342;42.826;23.992;2024-02-21T12:33:30;0.77;;;0.77;;
40649;SDS011;26342;42.826;23.992;2024-02-21T12:35:56;0.57;;;0.57;;
40649;SDS011;26342;42.826;23.992;2024-02-21T12:38:21;0.57;;;0.40;;
40649;SDS011;26342;42.826;23.992;2024-02-21T12:40:47;1.10;;;0.40;;
40649;SDS011;26342;42.826;23.992;2024-02-21T12:43:12;2.00;;;0.80;;
40649;SDS011;26342;42.826;23.992;2024-02-21T12:45:38;1.55;;;0.52;;
40649;SDS011;26342;42.826;23.992;2024-02-21T12:48:03;2.63;;;1.23;;
40649;SDS011;26342;42.826;23.992;2024-02-21T12:50:29;2.10;;;1.38;;
40649;SDS011;26342;42.826;23.992;2024-02-21T12:52:56;3.25;;;1.50;;
40649;SDS011;26342;42.826;23.992;2024-02-21T12:55:23;1.88;;;1.30;;
40649;SDS011;26342;42.826;23.992;2024-02-21T12:57:48;5.60;;;2.08;;
40649;SDS011;26342;42.826;23.992;2024-02-21T13:00:14;1.10;;;0.65;;
40649;SDS011;26342;42.826;23.992;2024-02-21T13:02:40;1.70;;;1.50;;
40649;SDS011;26342;42.826;23.992;2024-02-21T13:05:06;0.70;;;0.70;;
40649;SDS011;26342;42.826;23.992;2024-02-21T13:07:32;0.93;;;0.63;;
40649;SDS011;26342;42.826;23.992;2024-02-21T13:09:58;2.58;;;0.98;;
40649;SDS011;26342;42.826;23.992;2024-02-21T13:12:23;2.67;;;1.75;;
40649;SDS011;26342;42.826;23.992;2024-02-21T13:14:51;3.20;;;1.35;;
40649;SDS011;26342;42.826;23.992;2024-02-21T13:17:16;2.70;;;1.27;;
40649;SDS011;26342;42.826;23.992;2024-02-21T13:19:42;0.85;;;0.73;;
40649;SDS011;26342;42.826;23.992;2024-02-21T13:22:07;0.88;;;0.30;;
40649;SDS011;26342;42.826;23.992;2024-02-21T13:24:33;0.32;;;0.32;;
40649;SDS011;26342;42.826;23.992;2024-02-21T13:26:58;0.38;;;0.35;;
40649;SDS011;26342;42.826;23.992;2024-02-21T13:29:24;1.50;;;0.88;;
40649;SDS011;26342;42.826;23.992;2024-02-21T13:31:49;0.38;;;0.35;;
40649;SDS011;26342;42.826;23.992;2024-02-21T13:34:15;0.73;;;0.45;;
40649;SDS011;26342;42.826;23.992;2024-02-21T13:36:42;0.13;;;0.13;;
40649;SDS011;26342;42.826;23.992;2024-02-21T13:39:07;2.10;;;0.60;;
40649;SDS011;26342;42.826;23.992;2024-02-21T13:41:33;0.30;;;0.30;;
40649;SDS011;26342;42.826;23.992;2024-02-21T13:43:59;0.30;;;0.30;;
40649;SDS011;26342;42.826;23.992;2024-02-21T13:46:28;0.45;;;0.43;;
40649;SDS011;26342;42.826;23.992;2024-02-21T13:48:54;0.60;;;0.20;;
40649;SDS011;26342;42.826;23.992;2024-02-21T13:51:29;6.15;;;2.13;;
40649;SDS011;26342;42.826;23.992;2024-02-21T13:53:55;2.58;;;1.30;;
40649;SDS011;26342;42.826;23.992;2024-02-21T13:56:20;0.43;;;0.43;;
40649;SDS011;26342;42.826;23.992;2024-02-21T13:58:45;0.30;;;0.20;;
40649;SDS011;26342;42.826;23.992;2024-02-21T14:01:11;0.43;;;0.30;;
40649;SDS011;26342;42.826;23.992;2024-02-21T14:03:36;0.32;;;0.28;;
40649;SDS011;26342;42.826;23.992;2024-02-21T14:06:01;0.43;;;0.40;;
40649;SDS011;26342;42.826;23.992;2024-02-21T14:08:27;2.92;;;1.00;;
40649;SDS011;26342;42.826;23.992;2024-02-21T14:10:52;0.20;;;0.20;;
40649;SDS011;26342;42.826;23.992;2024-02-21T14:13:20;0.32;;;0.32;;
40649;SDS011;26342;42.826;23.992;2024-02-21T14:15:46;0.10;;;0.10;;
40649;SDS011;26342;42.826;23.992;2024-02-21T14:18:12;0.10;;;0.10;;
40649;SDS011;26342;42.826;23.992;2024-02-21T14:20:39;0.20;;;0.20;;
40649;SDS011;26342;42.826;23.992;2024-02-21T14:23:04;3.25;;;2.10;;
40649;SDS011;26342;42.826;23.992;2024-02-21T14:25:29;11.30;;;6.47;;
40649;SDS011;26342;42.826;23.992;2024-02-21T14:27:55;11.40;;;5.35;;
40649;SDS011;26342;42.826;23.992;2024-02-21T14:30:20;9.38;;;5.82;;
40649;SDS011;26342;42.826;23.992;2024-02-21T14:32:45;5.15;;;3.30;;
40649;SDS011;26342;42.826;23.992;2024-02-21T14:35:11;8.73;;;2.90;;
40649;SDS011;26342;42.826;23.992;2024-02-21T14:37:36;4.40;;;2.45;;
40649;SDS011;26342;42.826;23.992;2024-02-21T14:40:02;5.65;;;3.15;;
40649;SDS011;26342;42.826;23.992;2024-02-21T14:42:28;3.85;;;2.90;;
40649;SDS011;26342;42.826;23.992;2024-02-21T14:44:53;2.85;;;1.73;;
40649;SDS011;26342;42.826;23.992;2024-02-21T14:47:28;3.97;;;1.65;;
40649;SDS011;26342;42.826;23.992;2024-02-21T14:49:55;4.30;;;3.22;;
40649;SDS011;26342;42.826;23.992;2024-02-21T14:52:20;5.32;;;2.65;;
40649;SDS011;26342;42.826;23.992;2024-02-21T14:54:46;3.17;;;1.40;;
40649;SDS011;26342;42.826;23.992;2024-02-21T14:57:16;1.50;;;1.00;;